Decoded Metar for YSCB (CANBERRA in AUSTRALIA) (IATA:CBR) | Meteo·Mobile Aviation Weather
aviador You're here:

YSCB Decoded Metar

CANBERRA in AUSTRALIA
Report Time2018-08-21 22:00:00
UTC Time2018-08-21 22:19:48
Flight Rules vfr VFR
Wind080° at 04 kt
W.Decomp.*RWY 12: 2.5 kt HW 3.2 kt LCW
RWY 35: 0.8 kt HW 3.9 kt RCW
W.Rank080° ranks 18
Current wind is below 080° avg. (6.3)
Visibility9999 m
Phenomena:N/A
Clouds:Few 025 Hf
Expected CloudBase > 1,600 ft AGL from Temp-Dew spread
CeilingNone
Temp06°C (ISA -5)
Dew Point02°C (76% RH)
AAT2.9°C
QNH1015 hPa
Density Alt1,299 ft
Elevation1,893 ft
Report Wrong Elevation
Raw Report
YSCB 212200Z 08004KT 9999 FEW025 06/02 Q1015 NOSIG=

Extra information for YSCB:More info

Metar Taf Metar & Taf Last 4 Metars F.Rules Stats Wind Profile Meteogram Temp Stats Airport Information Weather charts Add Link Nearby VenuesMetar ALERT Operation Metar Decoded Social comments